Time;durP1;ratioP1;P1;durP2;ratioP2;P2;SDS_P1;SDS_P2;PMS_P1;PMS_P2;Temp;Humidity;BMP_temperature;BMP_pressure;BME280_temperature;BME280_humidity;BME280_pressure;Samples;Min_cycle;Max_cycle;Signal;HPM_P1;HPM_P2
2021/06/02 00:02:23;;;;;;;5.82;3.40;;;13.00;99.90;;;;;;5070287;28;20353;-62
2021/06/02 00:04:53;;;;;;;6.25;2.90;;;12.90;99.90;;;;;;5077199;28;20028;-62
2021/06/02 00:07:24;;;;;;;4.75;3.10;;;12.80;99.90;;;;;;5059366;28;20029;-62
2021/06/02 00:09:55;;;;;;;6.43;3.17;;;12.70;99.90;;;;;;5060600;28;20017;-62
2021/06/02 00:12:23;;;;;;;8.45;3.10;;;12.70;99.90;;;;;;5063109;28;20028;-62
2021/06/02 00:14:52;;;;;;;6.45;3.30;;;12.70;99.90;;;;;;5080711;28;20024;-62
2021/06/02 00:17:19;;;;;;;5.72;2.92;;;12.60;99.90;;;;;;5080753;28;20461;-62
2021/06/02 00:19:47;;;;;;;11.18;3.65;;;12.60;99.90;;;;;;5079833;28;20077;-62
2021/06/02 00:22:16;;;;;;;6.63;3.58;;;12.60;99.90;;;;;;5079749;28;20028;-62
2021/06/02 00:24:43;;;;;;;6.80;3.63;;;12.60;99.90;;;;;;5062591;28;20028;-62
2021/06/02 00:27:12;;;;;;;7.57;3.80;;;12.50;99.90;;;;;;5062111;28;20441;-62
2021/06/02 00:29:44;;;;;;;6.70;3.40;;;12.50;99.90;;;;;;5079800;28;20482;-62
2021/06/02 00:32:14;;;;;;;10.45;3.20;;;12.50;99.90;;;;;;5062405;28;20166;-62
2021/06/02 00:34:42;;;;;;;7.43;3.40;;;12.50;99.90;;;;;;5079832;28;20094;-62
2021/06/02 00:37:10;;;;;;;10.15;3.97;;;12.60;99.90;;;;;;5080399;28;20052;-62
2021/06/02 00:39:38;;;;;;;6.75;3.20;;;12.60;99.90;;;;;;5081239;28;20031;-62
2021/06/02 00:42:06;;;;;;;6.93;3.75;;;12.60;99.90;;;;;;5081068;28;20104;-62
2021/06/02 00:44:34;;;;;;;6.38;3.35;;;12.60;99.90;;;;;;5080461;28;20020;-62
2021/06/02 00:47:02;;;;;;;11.45;3.90;;;12.60;99.90;;;;;;5062649;28;20020;-62
2021/06/02 00:49:29;;;;;;;5.85;3.17;;;12.60;99.90;;;;;;5080419;28;20025;-62
2021/06/02 00:52:03;;;;;;;8.90;3.22;;;12.60;99.90;;;;;;5080474;28;20112;-62
2021/06/02 00:54:33;;;;;;;10.27;3.35;;;12.50;99.90;;;;;;5079726;28;20016;-62
2021/06/02 00:57:18;;;;;;;9.23;3.35;;;12.50;99.90;;;;;;5079174;28;20024;-62
2021/06/02 01:00:07;;;;;;;7.20;3.28;;;12.40;99.90;;;;;;5079191;28;20017;-62
2021/06/02 01:02:41;;;;;;;7.65;3.80;;;12.40;99.90;;;;;;5072094;28;20036;-62
2021/06/02 01:05:10;;;;;;;4.75;3.45;;;12.30;99.90;;;;;;5099267;28;20032;-62
2021/06/02 01:07:38;;;;;;;5.38;3.58;;;12.30;99.90;;;;;;5099765;28;20031;-62
2021/06/02 01:10:07;;;;;;;14.07;3.90;;;12.30;99.90;;;;;;5081400;28;20024;-62
2021/06/02 01:12:34;;;;;;;4.80;3.30;;;12.30;99.90;;;;;;5081221;28;20108;-62
2021/06/02 01:15:02;;;;;;;8.75;3.90;;;12.20;99.90;;;;;;5081322;28;20031;-62
2021/06/02 01:17:31;;;;;;;6.20;3.13;;;12.30;99.90;;;;;;5100157;28;20034;-62
2021/06/02 01:20:03;;;;;;;6.70;3.17;;;12.30;99.90;;;;;;5081938;28;20024;-62
2021/06/02 01:22:35;;;;;;;8.60;3.50;;;12.40;99.90;;;;;;5100163;28;20069;-62
2021/06/02 01:25:15;;;;;;;8.25;3.20;;;12.40;99.90;;;;;;5099625;28;20047;-62
2021/06/02 01:27:44;;;;;;;5.18;3.60;;;12.40;99.90;;;;;;5099831;28;20326;-62
2021/06/02 01:30:16;;;;;;;7.18;3.72;;;12.40;99.90;;;;;;5099799;28;20099;-62
2021/06/02 01:33:10;;;;;;;6.28;3.60;;;12.40;99.90;;;;;;5099903;28;20028;-62
2021/06/02 01:36:02;;;;;;;5.95;3.42;;;12.40;99.90;;;;;;5098867;28;20062;-62
2021/06/02 01:39:14;;;;;;;8.73;3.78;;;12.40;99.90;;;;;;5098598;28;20491;-62
2021/06/02 01:42:02;;;;;;;7.38;3.40;;;12.40;99.90;;;;;;5098553;28;20048;-62
2021/06/02 01:44:39;;;;;;;9.10;4.05;;;12.40;99.90;;;;;;5080809;28;20050;-62
2021/06/02 01:47:25;;;;;;;6.40;3.53;;;12.40;99.90;;;;;;5099184;28;20347;-62
2021/06/02 01:50:10;;;;;;;6.30;3.47;;;12.30;99.90;;;;;;5098484;28;20327;-62
2021/06/02 01:53:07;;;;;;;7.43;4.10;;;12.30;99.90;;;;;;5098731;28;20016;-62
2021/06/02 01:56:10;;;;;;;8.60;3.55;;;12.30;99.90;;;;;;5099273;28;20104;-62
2021/06/02 01:58:53;;;;;;;8.35;4.03;;;12.30;99.90;;;;;;5099584;28;20024;-62
2021/06/02 02:01:51;;;;;;;9.73;3.60;;;12.30;99.90;;;;;;5099419;28;20036;-62
2021/06/02 02:04:46;;;;;;;7.75;4.03;;;12.30;99.90;;;;;;5081380;28;20032;-62
2021/06/02 02:07:33;;;;;;;12.68;3.53;;;12.40;99.90;;;;;;5098891;28;20028;-62
2021/06/02 02:10:07;;;;;;;6.00;3.55;;;12.40;99.90;;;;;;5098984;28;20032;-62
2021/06/02 02:12:58;;;;;;;5.63;3.00;;;12.40;99.90;;;;;;5099725;28;20016;-62
2021/06/02 02:15:47;;;;;;;8.32;3.30;;;12.40;99.90;;;;;;5065631;28;20325;-62
2021/06/02 02:18:40;;;;;;;9.20;3.50;;;12.40;99.90;;;;;;5097820;28;20028;-62
2021/06/02 02:21:34;;;;;;;14.98;3.75;;;12.40;99.90;;;;;;5097715;28;20169;-62
2021/06/02 02:24:11;;;;;;;8.40;3.45;;;12.40;99.90;;;;;;5098413;28;20028;-62
2021/06/02 02:26:45;;;;;;;7.22;3.50;;;12.30;99.90;;;;;;5098294;28;20103;-62
2021/06/02 02:29:30;;;;;;;9.73;3.70;;;12.20;99.90;;;;;;5098353;28;20020;-62
2021/06/02 02:32:38;;;;;;;12.93;3.58;;;12.20;99.90;;;;;;5097700;28;20069;-62
2021/06/02 02:35:26;;;;;;;11.75;4.63;;;12.20;99.90;;;;;;5098044;28;20031;-62
2021/06/02 02:38:18;;;;;;;8.60;4.15;;;12.20;99.90;;;;;;5099259;28;20396;-62
2021/06/02 02:41:07;;;;;;;9.15;3.92;;;12.30;99.90;;;;;;5098491;28;20107;-62
2021/06/02 02:43:47;;;;;;;8.52;4.15;;;12.30;99.90;;;;;;5098397;28;20336;-61
2021/06/02 02:46:40;;;;;;;10.85;3.97;;;12.30;99.90;;;;;;5098298;28;20030;-62
2021/06/02 02:49:41;;;;;;;8.35;3.78;;;12.30;99.90;;;;;;5098817;28;20108;-62
2021/06/02 02:52:27;;;;;;;8.55;3.53;;;12.30;99.90;;;;;;5098405;28;20408;-61
2021/06/02 02:55:28;;;;;;;9.13;4.07;;;12.30;99.90;;;;;;5097776;28;20020;-62
2021/06/02 02:58:19;;;;;;;5.90;3.45;;;12.20;99.90;;;;;;5097337;28;20063;-62
2021/06/02 03:01:05;;;;;;;10.65;3.47;;;12.20;99.90;;;;;;5097172;28;20027;-62
2021/06/02 03:03:34;;;;;;;6.83;3.53;;;12.10;99.90;;;;;;5097023;28;20086;-62
2021/06/02 03:06:14;;;;;;;8.10;3.67;;;12.10;99.90;;;;;;5097018;28;20286;-62
2021/06/02 03:09:00;;;;;;;11.05;3.63;;;12.10;99.90;;;;;;5097837;28;20027;-62
2021/06/02 03:11:30;;;;;;;7.90;3.80;;;12.10;99.90;;;;;;5097603;28;20024;-62
2021/06/02 03:14:16;;;;;;;7.55;4.35;;;12.10;99.90;;;;;;5097566;28;20141;-62
2021/06/02 03:17:07;;;;;;;6.87;3.43;;;12.10;99.90;;;;;;5097430;28;20157;-62
2021/06/02 03:19:40;;;;;;;6.60;4.03;;;12.10;99.90;;;;;;5098492;28;20254;-62
2021/06/02 03:22:21;;;;;;;10.15;3.97;;;12.10;99.90;;;;;;5098043;28;20020;-62
2021/06/02 03:25:15;;;;;;;15.82;4.70;;;12.00;99.90;;;;;;5098204;28;20304;-62
2021/06/02 03:28:10;;;;;;;8.15;3.80;;;12.00;99.90;;;;;;5098411;28;20099;-62
2021/06/02 03:31:13;;;;;;;9.75;4.32;;;12.00;99.90;;;;;;5097623;28;20020;-62
2021/06/02 03:34:17;;;;;;;12.80;4.40;;;11.90;99.90;;;;;;5097608;28;20454;-62
2021/06/02 03:36:48;;;;;;;8.35;3.47;;;11.80;99.90;;;;;;5096535;28;20302;-62
2021/06/02 03:39:35;;;;;;;17.02;5.03;;;11.80;99.90;;;;;;5079575;28;20110;-62
2021/06/02 03:42:20;;;;;;;;;;;11.70;99.90;;;;;;5097603;28;20093;-62
2021/06/02 03:45:24;;;;;;;10.70;3.83;;;11.80;99.90;;;;;;5078512;28;19908;-62
2021/06/02 03:48:08;;;;;;;12.73;3.35;;;11.80;99.90;;;;;;5078850;28;20428;-62
2021/06/02 03:51:06;;;;;;;11.60;4.00;;;11.80;99.90;;;;;;5097051;28;20031;-62
2021/06/02 03:53:52;;;;;;;8.95;3.33;;;11.80;99.90;;;;;;5096641;28;20351;-62
2021/06/02 03:56:53;;;;;;;12.32;3.80;;;11.80;99.90;;;;;;5097304;28;20020;-62
2021/06/02 03:59:44;;;;;;;8.48;3.03;;;11.80;99.90;;;;;;5097310;28;20035;-62
2021/06/02 04:02:51;;;;;;;7.43;3.42;;;11.80;99.90;;;;;;5096807;28;20048;-61
2021/06/02 04:05:31;;;;;;;10.60;4.00;;;11.80;99.90;;;;;;5097127;28;20036;-62
2021/06/02 04:08:37;;;;;;;11.02;3.63;;;11.70;99.90;;;;;;5097484;28;20419;-62
2021/06/02 04:11:18;;;;;;;7.40;3.20;;;11.70;99.90;;;;;;5058921;28;20336;-62
2021/06/02 04:14:01;;;;;;;6.85;3.42;;;11.60;99.90;;;;;;5097312;28;20050;-62
2021/06/02 04:16:36;;;;;;;6.57;3.25;;;11.70;99.90;;;;;;5096317;28;20301;-62
2021/06/02 04:19:23;;;;;;;7.13;4.00;;;11.60;99.90;;;;;;5096264;28;20028;-62
2021/06/02 04:21:50;;;;;;;;;;;11.70;99.90;;;;;;5096731;28;20062;-62
2021/06/02 04:24:19;;;;;;;6.43;3.50;;;11.70;99.90;;;;;;5078565;28;19911;-62
2021/06/02 04:26:48;;;;;;;9.32;3.50;;;11.70;99.90;;;;;;5096605;28;20035;-62
2021/06/02 04:29:17;;;;;;;7.97;3.25;;;11.80;99.90;;;;;;5096119;28;20028;-62
2021/06/02 04:32:01;;;;;;;7.15;3.83;;;11.80;99.90;;;;;;5096067;28;20108;-62
2021/06/02 04:34:29;;;;;;;4.70;2.97;;;11.80;99.90;;;;;;5096274;28;20089;-62
2021/06/02 04:37:07;;;;;;;9.90;3.20;;;11.80;99.90;;;;;;5096029;28;20028;-62
2021/06/02 04:39:37;;;;;;;6.00;3.22;;;11.70;99.90;;;;;;5096848;28;20110;-62
2021/06/02 04:42:08;;;;;;;5.15;3.53;;;11.70;99.90;;;;;;5097489;28;20055;-63
2021/06/02 04:44:37;;;;;;;8.10;3.10;;;11.70;99.90;;;;;;5096646;28;20035;-62
2021/06/02 04:47:06;;;;;;;9.63;3.63;;;11.60;99.90;;;;;;5096959;28;20024;-62
2021/06/02 04:50:06;;;;;;;10.63;3.80;;;11.50;99.90;;;;;;5096825;28;20055;-62
2021/06/02 04:52:34;;;;;;;12.70;5.35;;;11.50;99.90;;;;;;5096823;28;20017;-62
2021/06/02 04:55:19;;;;;;;19.95;10.43;;;11.60;99.90;;;;;;5097282;28;20308;-62
2021/06/02 04:58:04;;;;;;;23.95;12.05;;;11.60;99.90;;;;;;5099898;28;20027;-62
2021/06/02 05:01:09;;;;;;;19.23;8.50;;;11.60;99.90;;;;;;5081428;28;20420;-62
2021/06/02 05:03:57;;;;;;;13.95;5.38;;;11.80;99.90;;;;;;5016302;28;20052;-62
2021/06/02 05:06:46;;;;;;;13.07;4.55;;;11.80;99.90;;;;;;5099698;28;20036;-62
2021/06/02 05:09:54;;;;;;;6.82;3.25;;;11.90;99.90;;;;;;5099727;28;20065;-63
2021/06/02 05:12:40;;;;;;;8.85;3.05;;;12.00;99.90;;;;;;5086405;28;20036;-64
2021/06/02 05:15:44;;;;;;;7.70;2.95;;;12.10;99.90;;;;;;5081208;28;20112;-64
2021/06/02 05:18:33;;;;;;;6.20;3.13;;;12.20;99.90;;;;;;5099952;28;20031;-64
2021/06/02 05:24:08;;;;;;;8.07;3.60;;;12.30;99.90;;;;;;5099815;28;20439;-63
2021/06/02 05:27:02;;;;;;;7.80;4.20;;;12.40;99.90;;;;;;5099995;28;20032;-64
2021/06/02 05:29:52;;;;;;;5.68;3.08;;;12.60;99.90;;;;;;5099897;28;20012;-63
2021/06/02 05:32:47;;;;;;;6.32;2.97;;;12.70;99.90;;;;;;5100238;28;20016;-63
2021/06/02 05:35:36;;;;;;;13.02;3.47;;;12.80;99.90;;;;;;5099674;28;20028;-66
2021/06/02 05:38:07;;;;;;;9.65;3.92;;;12.90;99.90;;;;;;5099216;28;20067;-64
2021/06/02 05:41:04;;;;;;;6.68;3.30;;;13.00;99.90;;;;;;5099205;28;20332;-64
2021/06/02 05:43:46;;;;;;;8.02;2.80;;;13.10;99.90;;;;;;5098707;28;20027;-64
2021/06/02 05:46:46;;;;;;;5.30;3.03;;;13.30;99.90;;;;;;5098896;28;20031;-64
2021/06/02 05:49:40;;;;;;;12.15;2.40;;;13.40;99.90;;;;;;5098678;28;20027;-65
2021/06/02 05:52:44;;;;;;;5.43;2.67;;;13.60;99.90;;;;;;5080589;28;20073;-65
2021/06/02 05:56:07;;;;;;;4.13;2.65;;;13.80;99.90;;;;;;5098991;28;20016;-65
2021/06/02 05:59:02;;;;;;;6.72;3.40;;;14.10;99.90;;;;;;5061185;28;20047;-65
2021/06/02 06:01:51;;;;;;;5.10;2.45;;;14.30;99.90;;;;;;5098891;28;20416;-66
2021/06/02 06:05:17;;;;;;;4.30;2.50;;;14.50;99.90;;;;;;5099414;28;20057;-65
2021/06/02 06:08:21;;;;;;;6.38;2.17;;;14.70;99.90;;;;;;5045427;28;20032;-66
2021/06/02 06:11:39;;;;;;;6.38;2.70;;;15.00;99.90;;;;;;5099611;28;20412;-65
2021/06/02 06:14:16;;;;;;;4.75;2.50;;;15.20;99.90;;;;;;5057277;28;20431;-66
2021/06/02 06:17:25;;;;;;;4.68;2.20;;;15.30;99.90;;;;;;5098329;28;20026;-66
2021/06/02 06:20:10;;;;;;;3.65;2.42;;;15.50;99.90;;;;;;5098376;28;20476;-66
2021/06/02 06:23:15;;;;;;;11.23;2.83;;;15.60;99.90;;;;;;5079824;28;20110;-66
2021/06/02 06:26:00;;;;;;;7.18;2.60;;;15.70;99.90;;;;;;5098041;28;20020;-65
2021/06/02 06:28:58;;;;;;;6.88;2.58;;;15.80;99.90;;;;;;5097844;28;20028;-66
2021/06/02 06:31:29;;;;;;;5.38;2.40;;;15.90;99.90;;;;;;5098369;28;20024;-66
2021/06/02 06:34:05;;;;;;;6.22;2.70;;;16.10;99.90;;;;;;5097613;28;20031;-66
2021/06/02 06:36:34;;;;;;;8.40;2.58;;;16.20;99.90;;;;;;5097311;28;20024;-64
2021/06/02 06:39:26;;;;;;;4.75;2.47;;;16.30;99.90;;;;;;5098777;28;20119;-64
2021/06/02 06:41:54;;;;;;;5.47;2.83;;;16.50;99.90;;;;;;5098315;28;20146;-63
2021/06/02 06:44:23;;;;;;;6.75;2.42;;;16.60;99.90;;;;;;5098350;28;20040;-62
2021/06/02 06:46:55;;;;;;;8.57;3.22;;;16.70;99.90;;;;;;5098236;28;20020;-62
2021/06/02 06:49:24;;;;;;;5.75;2.53;;;16.80;99.90;;;;;;5098138;28;20028;-63
2021/06/02 06:51:53;;;;;;;5.35;2.65;;;16.90;99.90;;;;;;5098182;28;20024;-63
2021/06/02 06:54:25;;;;;;;6.85;2.42;;;16.90;99.90;;;;;;5098004;28;20050;-62
2021/06/02 06:56:54;;;;;;;4.95;2.22;;;17.00;99.90;;;;;;5097688;28;20347;-62
2021/06/02 06:59:22;;;;;;;6.53;2.88;;;17.10;99.90;;;;;;5097388;28;20115;-62
2021/06/02 07:01:50;;;;;;;5.97;2.90;;;17.20;99.90;;;;;;5097448;28;20036;-62
2021/06/02 07:04:18;;;;;;;7.15;2.78;;;17.20;99.90;;;;;;5097633;28;20456;-62
2021/06/02 07:06:46;;;;;;;4.95;3.08;;;17.30;99.90;;;;;;5097600;28;20024;-63
2021/06/02 07:09:15;;;;;;;5.82;3.03;;;17.30;99.90;;;;;;5097145;28;20020;-62
2021/06/02 07:11:44;;;;;;;7.13;3.70;;;17.30;99.90;;;;;;5096914;28;20031;-62
2021/06/02 07:14:16;;;;;;;6.93;3.35;;;17.40;99.90;;;;;;5096924;28;20043;-62
2021/06/02 07:16:45;;;;;;;6.75;2.97;;;17.40;99.90;;;;;;5096955;28;20111;-62
2021/06/02 07:19:13;;;;;;;5.82;3.33;;;17.50;99.90;;;;;;5079462;28;20021;-62
2021/06/02 07:21:44;;;;;;;5.00;3.00;;;17.50;99.90;;;;;;5079724;28;20035;-62
2021/06/02 07:24:12;;;;;;;5.95;3.13;;;17.60;99.90;;;;;;5097743;28;20327;-62
2021/06/02 07:26:43;;;;;;;9.85;3.33;;;17.60;99.90;;;;;;5097959;28;20020;-62
2021/06/02 07:29:11;;;;;;;6.22;3.40;;;17.60;99.90;;;;;;5097916;28;20021;-63
2021/06/02 07:31:38;;;;;;;6.13;2.70;;;17.70;99.90;;;;;;5098170;28;20023;-62
2021/06/02 07:34:06;;;;;;;4.63;3.10;;;17.80;99.90;;;;;;5079584;28;20024;-63
2021/06/02 07:36:36;;;;;;;10.55;2.97;;;17.80;99.90;;;;;;5097413;28;20149;-62
2021/06/02 07:39:05;;;;;;;4.68;3.00;;;17.90;99.90;;;;;;5096781;28;20051;-62
2021/06/02 07:41:32;;;;;;;6.10;3.53;;;18.00;99.90;;;;;;5096681;28;20032;-62
2021/06/02 07:44:00;;;;;;;5.97;3.13;;;18.10;99.90;;;;;;5078683;28;20027;-62
2021/06/02 07:46:28;;;;;;;8.65;3.67;;;18.10;99.90;;;;;;5096405;28;20024;-62
2021/06/02 07:48:55;;;;;;;4.68;2.75;;;18.20;99.90;;;;;;5078641;28;20020;-62
2021/06/02 07:51:22;;;;;;;7.45;3.05;;;18.30;99.90;;;;;;5096979;28;20016;-62
2021/06/02 07:53:51;;;;;;;5.50;3.28;;;18.40;99.90;;;;;;5096374;28;20031;-62
2021/06/02 07:56:18;;;;;;;9.02;3.25;;;18.50;99.90;;;;;;5096498;28;20420;-62
2021/06/02 07:58:46;;;;;;;6.75;2.85;;;18.60;99.90;;;;;;5096947;28;20028;-62
2021/06/02 08:01:14;;;;;;;3.80;2.58;;;18.70;99.90;;;;;;5097240;28;20428;-62
2021/06/02 08:03:41;;;;;;;6.28;3.72;;;18.90;99.90;;;;;;5097155;28;20062;-62
2021/06/02 08:06:08;;;;;;;4.95;2.97;;;19.00;99.80;;;;;;5097208;28;20016;-63
2021/06/02 08:08:36;;;;;;;6.43;2.92;;;19.20;99.90;;;;;;5097927;28;20030;-63
2021/06/02 08:11:03;;;;;;;4.45;2.88;;;19.40;99.50;;;;;;5079563;28;20092;-63
2021/06/02 08:13:31;;;;;;;5.75;2.70;;;19.40;99.20;;;;;;5079272;28;20028;-62
2021/06/02 08:15:58;;;;;;;3.88;2.55;;;19.60;98.80;;;;;;5097157;28;20036;-63
2021/06/02 08:18:26;;;;;;;6.25;3.13;;;19.70;97.90;;;;;;5096414;28;20058;-63
2021/06/02 08:20:56;;;;;;;7.05;2.95;;;19.90;97.40;;;;;;5096236;28;20025;-63
2021/06/02 08:23:24;;;;;;;5.15;3.15;;;20.00;97.40;;;;;;5096106;28;20031;-63
2021/06/02 08:25:52;;;;;;;5.25;2.85;;;20.10;96.90;;;;;;5079128;28;20020;-63
2021/06/02 08:28:20;;;;;;;4.43;2.60;;;20.20;96.40;;;;;;5096163;28;20069;-63
2021/06/02 08:30:47;;;;;;;6.53;2.95;;;20.40;95.30;;;;;;5079254;28;20024;-63
2021/06/02 08:33:15;;;;;;;5.45;2.95;;;20.50;95.20;;;;;;5099889;28;20320;-64
2021/06/02 08:35:43;;;;;;;3.97;3.00;;;20.60;95.30;;;;;;5100144;28;20103;-64
2021/06/02 08:38:11;;;;;;;7.65;3.03;;;20.70;95.30;;;;;;5100066;28;20463;-64
2021/06/02 08:40:40;;;;;;;6.28;3.17;;;20.80;94.90;;;;;;5101427;28;20032;-64
2021/06/02 08:43:07;;;;;;;3.17;2.53;;;21.00;94.40;;;;;;5100840;28;20082;-64
2021/06/02 08:45:35;;;;;;;6.00;2.67;;;21.10;93.60;;;;;;5100728;28;20020;-64
2021/06/02 08:48:03;;;;;;;4.75;2.38;;;21.10;93.10;;;;;;5100716;28;20081;-64
2021/06/02 08:50:31;;;;;;;4.03;2.65;;;21.10;92.80;;;;;;5101363;28;20051;-64
2021/06/02 08:53:00;;;;;;;6.97;2.63;;;21.20;92.60;;;;;;5100463;28;20050;-64
2021/06/02 08:55:28;;;;;;;5.47;2.72;;;21.30;91.60;;;;;;5082923;28;20051;-62
2021/06/02 08:57:56;;;;;;;6.95;2.97;;;21.40;90.40;;;;;;5100256;28;20020;-62
2021/06/02 09:00:26;;;;;;;7.70;3.38;;;21.40;90.40;;;;;;5099800;28;20042;-62
2021/06/02 09:02:55;;;;;;;5.20;3.35;;;21.50;91.50;;;;;;5099408;28;20101;-62
2021/06/02 09:05:24;;;;;;;5.40;3.13;;;21.50;92.50;;;;;;5099933;28;20028;-61
2021/06/02 09:07:54;;;;;;;6.05;3.30;;;21.60;92.90;;;;;;5099224;28;20036;-62
2021/06/02 09:10:22;;;;;;;5.97;3.50;;;21.60;92.70;;;;;;5099268;28;20109;-61
2021/06/02 09:12:58;;;;;;;6.40;3.72;;;21.70;92.60;;;;;;5099378;28;20373;-61
2021/06/02 09:15:35;;;;;;;7.70;2.90;;;21.70;92.00;;;;;;5099001;28;20070;-61
2021/06/02 09:18:05;;;;;;;5.30;3.03;;;21.80;90.90;;;;;;5099367;28;20028;-61
2021/06/02 09:20:49;;;;;;;4.20;2.90;;;21.90;91.90;;;;;;5100267;28;20299;-61
2021/06/02 09:23:38;;;;;;;8.15;2.92;;;22.00;91.90;;;;;;5099877;28;20024;-62
2021/06/02 09:26:25;;;;;;;5.97;3.00;;;22.10;90.80;;;;;;5099683;28;20093;-61
2021/06/02 09:28:59;;;;;;;4.10;2.97;;;22.20;90.90;;;;;;5099811;28;20026;-61
2021/06/02 09:31:45;;;;;;;4.40;2.40;;;22.20;90.30;;;;;;5099736;28;20028;-63
2021/06/02 09:34:27;;;;;;;6.45;2.50;;;22.30;87.30;;;;;;5099768;28;20025;-64
2021/06/02 09:37:02;;;;;;;5.18;2.53;;;22.40;83.00;;;;;;5099508;28;20050;-64
2021/06/02 09:39:38;;;;;;;3.85;2.88;;;22.60;82.00;;;;;;5098527;28;20079;-64
2021/06/02 09:42:29;;;;;;;;;;;22.70;79.40;;;;;;5098731;28;20020;-63
2021/06/02 09:45:13;;;;;;;6.68;2.28;;;22.80;78.90;;;;;;5098860;28;20290;-64
2021/06/02 09:47:45;;;;;;;5.35;2.60;;;22.90;78.10;;;;;;5098643;28;20466;-63
2021/06/02 09:50:18;;;;;;;5.18;2.45;;;23.00;77.70;;;;;;5098613;28;20024;-63
2021/06/02 09:52:48;;;;;;;4.22;3.03;;;23.00;78.50;;;;;;5098447;28;20024;-63
2021/06/02 09:55:19;;;;;;;5.65;2.85;;;23.10;79.00;;;;;;5098408;28;20098;-63
2021/06/02 09:57:54;;;;;;;5.90;2.85;;;23.20;77.80;;;;;;5098403;28;20024;-64
2021/06/02 10:00:22;;;;;;;4.45;3.20;;;23.30;77.40;;;;;;5100205;28;20300;-64
2021/06/02 10:03:14;;;;;;;3.97;2.35;;;23.30;74.80;;;;;;5099128;28;20075;-64
2021/06/02 10:05:43;;;;;;;9.30;2.60;;;23.40;73.60;;;;;;5087456;28;20066;-63
2021/06/02 10:08:25;;;;;;;6.13;2.70;;;23.50;73.10;;;;;;5099518;28;20019;-63
2021/06/02 10:10:57;;;;;;;5.82;2.30;;;23.70;71.20;;;;;;5099143;28;20103;-63
2021/06/02 10:13:28;;;;;;;4.05;2.33;;;23.70;71.20;;;;;;5099053;28;20020;-64
2021/06/02 10:15:56;;;;;;;5.60;2.33;;;23.70;71.70;;;;;;5098973;28;20016;-64
2021/06/02 10:18:31;;;;;;;3.95;2.20;;;23.70;71.80;;;;;;5080968;28;20035;-64
2021/06/02 10:21:00;;;;;;;8.10;2.30;;;23.90;70.00;;;;;;5097872;28;20541;-64
2021/06/02 10:23:30;;;;;;;4.88;2.08;;;24.10;69.00;;;;;;5097918;28;20035;-64
2021/06/02 10:26:01;;;;;;;4.80;2.00;;;24.20;68.10;;;;;;5097628;28;20074;-64
2021/06/02 10:28:30;;;;;;;4.90;2.55;;;24.20;68.80;;;;;;5079914;28;20017;-64
2021/06/02 10:30:58;;;;;;;4.13;2.55;;;24.30;68.30;;;;;;5097724;28;20035;-64
2021/06/02 10:33:26;;;;;;;6.60;2.25;;;24.40;67.80;;;;;;5098343;28;20099;-63
2021/06/02 10:35:55;;;;;;;8.57;1.95;;;24.60;69.00;;;;;;5097633;28;20107;-64
2021/06/02 10:38:23;;;;;;;6.28;2.38;;;24.70;67.20;;;;;;5098173;28;20020;-63
2021/06/02 10:40:52;;;;;;;4.03;2.47;;;24.70;66.40;;;;;;5098479;28;20040;-63
2021/06/02 10:43:35;;;;;;;6.38;2.17;;;24.90;68.30;;;;;;5098448;28;20409;-63
2021/06/02 10:46:08;;;;;;;6.55;2.47;;;25.10;67.40;;;;;;5098346;28;20028;-63
2021/06/02 10:48:53;;;;;;;4.22;2.40;;;25.20;65.30;;;;;;5098381;28;20025;-63
2021/06/02 10:51:37;;;;;;;3.22;2.00;;;25.40;64.90;;;;;;5098288;28;20077;-63
2021/06/02 10:54:13;;;;;;;2.50;1.60;;;25.60;65.50;;;;;;5097615;28;20020;-63
2021/06/02 10:56:41;;;;;;;;;;;25.70;63.90;;;;;;5098506;28;20032;-63
2021/06/02 10:59:45;;;;;;;5.00;1.98;;;25.70;61.10;;;;;;5097426;28;20349;-63
2021/06/02 11:02:14;;;;;;;3.13;1.77;;;25.60;58.10;;;;;;4995699;28;20082;-64
2021/06/02 11:05:05;;;;;;;5.55;1.98;;;25.60;56.10;;;;;;5079251;28;20059;-63
2021/06/02 11:07:36;;;;;;;4.05;1.73;;;25.70;57.80;;;;;;5097915;28;20027;-63
2021/06/02 11:10:07;;;;;;;6.18;2.33;;;25.70;56.90;;;;;;5097333;28;20020;-63
2021/06/02 11:12:48;;;;;;;4.80;2.08;;;25.80;56.50;;;;;;5096929;28;20032;-63
2021/06/02 11:15:43;;;;;;;5.07;1.88;;;25.80;57.00;;;;;;5097565;28;20027;-63
2021/06/02 11:18:12;;;;;;;2.25;1.70;;;26.00;57.10;;;;;;5096994;28;20371;-63
2021/06/02 11:20:40;;;;;;;2.20;1.60;;;26.10;53.40;;;;;;5097311;28;20027;-63
2021/06/02 11:23:12;;;;;;;4.03;1.73;;;26.20;55.60;;;;;;5097707;28;20028;-63
2021/06/02 11:25:41;;;;;;;2.63;1.80;;;26.20;55.90;;;;;;5097722;28;20051;-63
2021/06/02 11:28:30;;;;;;;4.10;1.90;;;26.30;53.90;;;;;;5097684;28;20024;-63
2021/06/02 11:31:19;;;;;;;2.30;1.67;;;26.40;53.00;;;;;;5097183;28;20024;-63
2021/06/02 11:33:47;;;;;;;2.83;1.95;;;26.40;53.00;;;;;;5097555;28;20028;-63
2021/06/02 11:36:15;;;;;;;5.20;2.20;;;26.40;53.80;;;;;;5097417;28;20107;-64
2021/06/02 11:38:43;;;;;;;3.63;2.03;;;26.30;54.10;;;;;;5097503;28;20328;-63
2021/06/02 11:41:13;;;;;;;7.82;2.78;;;26.20;54.30;;;;;;5096616;28;20496;-64
2021/06/02 11:43:41;;;;;;;3.00;2.00;;;26.20;54.30;;;;;;5096473;28;20332;-64
2021/06/02 11:46:09;;;;;;;4.13;1.70;;;26.20;53.60;;;;;;5096675;28;20020;-64
2021/06/02 11:48:38;;;;;;;5.38;1.85;;;26.20;53.40;;;;;;5078437;28;20320;-64
2021/06/02 11:51:08;;;;;;;2.15;1.60;;;26.30;53.50;;;;;;5096491;28;20027;-64
2021/06/02 11:53:40;;;;;;;6.55;1.98;;;26.40;54.30;;;;;;5096769;28;20413;-64
2021/06/02 11:56:08;;;;;;;4.88;1.73;;;26.50;52.40;;;;;;5097104;28;20024;-65
2021/06/02 11:58:36;;;;;;;5.53;1.48;;;26.60;51.10;;;;;;5079009;28;20048;-65
2021/06/02 12:01:03;;;;;;;8.38;1.90;;;26.70;52.10;;;;;;5097768;28;20434;-64
2021/06/02 12:03:31;;;;;;;2.08;1.45;;;26.70;50.50;;;;;;5062245;28;20048;-64
2021/06/02 12:05:59;;;;;;;3.38;1.77;;;26.70;49.50;;;;;;5080303;28;20025;-64
2021/06/02 12:08:27;;;;;;;2.38;1.60;;;26.70;49.40;;;;;;5081122;28;20028;-64
2021/06/02 12:10:58;;;;;;;3.33;1.65;;;26.70;48.40;;;;;;5081109;28;20048;-63
2021/06/02 12:13:34;;;;;;;4.85;1.58;;;26.70;48.30;;;;;;5063442;28;20028;-63
2021/06/02 12:16:03;;;;;;;5.47;2.13;;;26.80;49.50;;;;;;5081098;28;20024;-63
2021/06/02 12:18:46;;;;;;;35.95;3.90;;;26.80;50.50;;;;;;5080441;28;20025;-63
2021/06/02 12:21:21;;;;;;;3.50;1.88;;;27.00;51.60;;;;;;5079954;28;20032;-63
2021/06/02 12:23:53;;;;;;;4.00;1.90;;;27.00;49.40;;;;;;5080083;28;20020;-63
2021/06/02 12:26:28;;;;;;;2.95;1.77;;;27.00;51.60;;;;;;5080460;28;20109;-63
2021/06/02 12:28:59;;;;;;;5.35;1.67;;;27.00;50.10;;;;;;5079985;28;20024;-63
2021/06/02 12:31:48;;;;;;;5.10;2.47;;;27.00;49.60;;;;;;5079819;28;20423;-63
2021/06/02 12:34:18;;;;;;;3.88;2.00;;;27.00;50.30;;;;;;5079727;28;20024;-63
2021/06/02 12:37:02;;;;;;;3.03;1.58;;;27.00;48.90;;;;;;5079666;28;20107;-63
2021/06/02 12:39:34;;;;;;;8.45;2.88;;;26.90;49.90;;;;;;5080217;28;20440;-63
2021/06/02 12:42:05;;;;;;;3.15;1.80;;;26.90;49.70;;;;;;5080582;28;20049;-63
2021/06/02 12:44:40;;;;;;;2.85;1.60;;;26.90;50.70;;;;;;5080617;28;20027;-63
2021/06/02 12:47:09;;;;;;;;;;;26.90;50.00;;;;;;5081231;28;20135;-63
2021/06/02 12:49:45;;;;;;;2.85;1.60;;;27.00;50.60;;;;;;5080359;28;20312;-63
2021/06/02 12:52:14;;;;;;;5.25;1.73;;;27.00;51.80;;;;;;5080320;28;20036;-64
2021/06/02 12:54:42;;;;;;;4.35;1.85;;;27.10;49.50;;;;;;5080250;28;20035;-63
2021/06/02 12:57:09;;;;;;;2.53;1.70;;;27.10;50.40;;;;;;5079500;28;20033;-64
2021/06/02 12:59:39;;;;;;;2.63;2.03;;;27.10;51.10;;;;;;5079186;28;20086;-64
2021/06/02 13:02:10;;;;;;;3.92;1.92;;;27.10;50.70;;;;;;5084671;28;20059;-64
2021/06/02 13:04:38;;;;;;;3.35;2.05;;;27.10;51.00;;;;;;5099340;28;20024;-63
2021/06/02 13:07:06;;;;;;;4.95;2.05;;;27.10;51.20;;;;;;5099326;28;20356;-64
2021/06/02 13:09:34;;;;;;;9.13;2.83;;;27.20;51.60;;;;;;5082652;28;20031;-64
2021/06/02 13:12:02;;;;;;;5.55;2.08;;;27.20;52.20;;;;;;5099664;28;20050;-64
2021/06/02 13:14:38;;;;;;;4.47;2.33;;;27.10;52.70;;;;;;5081635;28;20474;-64
2021/06/02 13:17:06;;;;;;;3.05;1.90;;;27.10;52.60;;;;;;5098860;28;20352;-64
2021/06/02 13:19:44;;;;;;;4.45;1.80;;;27.00;53.40;;;;;;5100369;28;20036;-64
2021/06/02 13:22:23;;;;;;;4.22;1.80;;;27.00;52.10;;;;;;5100302;28;20306;-64
2021/06/02 13:24:51;;;;;;;2.75;2.08;;;26.90;51.30;;;;;;5100036;28;20092;-63
2021/06/02 13:27:20;;;;;;;3.97;2.10;;;26.80;51.50;;;;;;5100594;28;20089;-64
2021/06/02 13:30:10;;;;;;;4.00;2.40;;;26.90;52.10;;;;;;5099944;28;20069;-61
2021/06/02 13:32:38;;;;;;;4.13;2.00;;;26.90;51.50;;;;;;5099712;28;20024;-63
2021/06/02 13:35:19;;;;;;;5.22;1.90;;;27.00;52.30;;;;;;5099446;28;20016;-63
2021/06/02 13:37:47;;;;;;;3.25;1.80;;;27.10;52.10;;;;;;5081347;28;20020;-63
2021/06/02 13:40:17;;;;;;;4.43;2.20;;;27.20;51.90;;;;;;5098825;28;20021;-63
2021/06/02 13:43:04;;;;;;;4.40;1.67;;;27.40;51.80;;;;;;5098698;28;20027;-64
2021/06/02 13:45:39;;;;;;;3.15;1.70;;;27.50;50.20;;;;;;5098619;28;20024;-64